createdAt,value
2022-09-20T00:00:11.677Z,11.37
2022-09-20T00:05:06.929Z,12.37
2022-09-20T00:09:59.682Z,10.80
2022-09-20T00:14:52.470Z,11.80
2022-09-20T00:19:45.094Z,7.70
2022-09-20T00:24:39.179Z,6.20
2022-09-20T00:29:31.790Z,7.80
2022-09-20T00:34:41.912Z,8.33
2022-09-20T00:39:34.459Z,6.90
2022-09-20T00:44:45.924Z,9.30
2022-09-20T00:49:39.926Z,12.87
2022-09-20T00:54:32.564Z,11.67
2022-09-20T00:59:27.415Z,10.27
2022-09-20T01:04:21.822Z,11.83
2022-09-20T01:09:15.928Z,13.20
2022-09-20T01:14:08.895Z,9.50
2022-09-20T01:19:03.894Z,7.00
2022-09-20T01:23:59.980Z,7.20
2022-09-20T01:28:58.439Z,7.10
2022-09-20T01:33:53.145Z,7.07
2022-09-20T01:38:50.071Z,5.60
2022-09-20T01:43:46.902Z,5.30
2022-09-20T01:48:41.669Z,5.03
2022-09-20T01:53:49.027Z,5.47
2022-09-20T01:59:07.260Z,5.07
2022-09-20T02:04:11.100Z,5.70
2022-09-20T02:09:20.209Z,4.63
2022-09-20T02:14:20.517Z,5.00
2022-09-20T02:19:26.666Z,5.73
2022-09-20T02:24:24.304Z,4.40
2022-09-20T02:29:21.185Z,4.40
2022-09-20T02:34:27.863Z,4.07
2022-09-20T02:39:22.412Z,5.07
2022-09-20T02:44:19.369Z,5.17
2022-09-20T02:49:16.224Z,6.20
2022-09-20T02:54:16.352Z,6.67
2022-09-20T02:59:14.916Z,7.13
2022-09-20T03:04:12.969Z,9.73
2022-09-20T03:09:10.975Z,12.83
2022-09-20T03:14:12.251Z,10.50
2022-09-20T03:19:12.706Z,8.70
2022-09-20T03:24:09.989Z,13.40
2022-09-20T03:29:04.751Z,14.00
2022-09-20T03:34:05.002Z,10.43
2022-09-20T03:39:04.720Z,9.40
2022-09-20T03:44:20.104Z,8.77
2022-09-20T03:49:31.069Z,10.70
2022-09-20T03:54:33.811Z,12.07
2022-09-20T03:59:33.070Z,12.37
2022-09-20T04:04:28.172Z,9.70
2022-09-20T04:09:28.880Z,6.03
2022-09-20T04:14:26.374Z,6.97
2022-09-20T04:19:23.576Z,8.00
2022-09-20T04:24:23.153Z,7.63
2022-09-20T04:29:23.166Z,9.33
2022-09-20T04:34:19.921Z,9.97
2022-09-20T04:39:20.500Z,8.73
2022-09-20T04:44:30.237Z,7.63
2022-09-20T04:49:43.237Z,8.60
2022-09-20T04:55:02.564Z,7.27
2022-09-20T05:00:02.426Z,8.40
2022-09-20T05:05:14.479Z,9.63
2022-09-20T05:10:21.274Z,9.30
2022-09-20T05:15:24.403Z,8.87
2022-09-20T05:20:27.551Z,11.40
2022-09-20T05:25:42.080Z,14.53
2022-09-20T05:30:37.971Z,15.50
2022-09-20T05:35:35.162Z,16.33
2022-09-20T05:40:31.230Z,10.73
2022-09-20T05:45:33.381Z,8.70
2022-09-20T05:50:34.332Z,9.07
2022-09-20T05:55:35.878Z,9.70
2022-09-20T06:00:31.304Z,11.30
2022-09-20T06:05:30.502Z,12.80
2022-09-20T06:10:31.055Z,8.07
2022-09-20T06:15:27.434Z,6.57
2022-09-20T06:20:25.461Z,6.07
2022-09-20T06:25:21.195Z,12.50
2022-09-20T06:30:16.384Z,11.63
2022-09-20T06:35:10.539Z,9.70
2022-09-20T06:40:27.508Z,8.47
2022-09-20T06:45:20.100Z,10.33
2022-09-20T06:50:17.321Z,10.20
2022-09-20T06:55:12.723Z,9.53
2022-09-20T07:00:06.301Z,6.73
2022-09-20T07:04:59.644Z,7.00
2022-09-20T07:09:53.450Z,5.30
2022-09-20T07:14:45.978Z,4.00
2022-09-20T07:19:38.485Z,3.70
2022-09-20T07:24:32.280Z,4.80
2022-09-20T07:29:27.129Z,4.87
2022-09-20T07:34:20.282Z,3.80
2022-09-20T07:39:12.760Z,4.30
2022-09-20T07:44:19.160Z,4.30
2022-09-20T07:49:12.956Z,4.30
2022-09-20T07:54:05.473Z,4.00
2022-09-20T07:58:58.016Z,4.83
2022-09-20T08:03:51.122Z,4.20
2022-09-20T08:08:45.336Z,5.10
2022-09-20T08:18:51.554Z,4.60
2022-09-20T08:23:46.613Z,4.27
2022-09-20T08:28:39.467Z,4.33
2022-09-20T08:33:31.931Z,4.37
2022-09-20T08:43:45.483Z,4.70
2022-09-20T08:48:38.290Z,4.23
2022-09-20T08:53:31.372Z,4.37
2022-09-20T08:58:23.957Z,4.83
2022-09-20T09:03:18.700Z,4.50
2022-09-20T09:08:16.136Z,4.10
2022-09-20T09:13:08.651Z,4.10
2022-09-20T09:18:01.342Z,3.80
2022-09-20T09:23:02.583Z,3.80
2022-09-20T09:27:57.006Z,2.90
2022-09-20T09:32:49.553Z,3.57
2022-09-20T09:37:53.648Z,3.23
2022-09-20T09:42:51.206Z,3.10
2022-09-20T09:47:44.215Z,3.10
2022-09-20T09:52:36.780Z,3.03
2022-09-20T09:57:33.735Z,2.67
2022-09-20T10:02:48.065Z,2.53
2022-09-20T10:07:45.424Z,2.27
2022-09-20T10:12:44.497Z,2.17
2022-09-20T10:17:48.524Z,1.83
2022-09-20T10:23:06.765Z,2.30
2022-09-20T10:28:06.487Z,1.70
2022-09-20T10:33:03.123Z,1.80
2022-09-20T10:38:13.227Z,2.20
2022-09-20T10:43:16.136Z,1.77
2022-09-20T10:48:13.729Z,1.93
2022-09-20T10:53:11.706Z,1.70
2022-09-20T10:58:16.711Z,2.07
2022-09-20T11:03:15.938Z,2.00
2022-09-20T11:08:11.932Z,1.77
2022-09-20T11:13:08.351Z,2.40
2022-09-20T11:18:04.671Z,1.80
2022-09-20T11:23:01.043Z,1.60
2022-09-20T11:27:56.057Z,2.17
2022-09-20T11:32:50.284Z,1.93
2022-09-20T11:37:46.579Z,1.87
2022-09-20T11:42:41.229Z,2.00
2022-09-20T11:47:53.954Z,2.40
2022-09-20T11:52:55.917Z,2.40
2022-09-20T11:58:01.302Z,1.67
2022-09-20T12:02:54.616Z,1.83
2022-09-20T12:07:47.230Z,1.80
2022-09-20T12:12:41.539Z,1.70
2022-09-20T12:17:52.775Z,1.20
2022-09-20T12:22:46.904Z,1.83
2022-09-20T12:28:00.444Z,1.67
2022-09-20T12:32:57.413Z,1.80
2022-09-20T12:37:51.292Z,1.70
2022-09-20T12:42:43.864Z,1.73
2022-09-20T12:47:37.868Z,1.80
2022-09-20T12:52:49.516Z,1.67
2022-09-20T12:57:43.720Z,1.70
2022-09-20T13:02:43.268Z,1.43
2022-09-20T13:07:42.691Z,2.00
2022-09-20T13:12:38.213Z,1.43
2022-09-20T13:17:32.732Z,1.60
2022-09-20T13:22:26.564Z,1.67
2022-09-20T13:27:21.314Z,1.80
2022-09-20T13:32:17.598Z,1.50
2022-09-20T13:37:23.457Z,1.53
2022-09-20T13:42:19.688Z,1.90
2022-09-20T13:47:22.701Z,1.60
2022-09-20T13:52:23.068Z,1.40
2022-09-20T13:57:19.886Z,1.70
2022-09-20T14:02:19.548Z,1.40
2022-09-20T14:07:15.479Z,1.60
2022-09-20T14:12:11.189Z,1.77
2022-09-20T14:17:06.119Z,1.40
2022-09-20T14:21:59.854Z,1.43
2022-09-20T14:27:01.304Z,1.70
2022-09-20T14:31:56.821Z,1.67
2022-09-20T14:36:49.663Z,1.80
2022-09-20T14:41:43.456Z,1.40
2022-09-20T14:46:38.684Z,1.73
2022-09-20T14:51:32.638Z,1.80
2022-09-20T14:56:33.660Z,1.77
2022-09-20T15:01:26.720Z,2.03
2022-09-20T15:06:19.355Z,1.90
2022-09-20T15:11:14.838Z,1.90
2022-09-20T15:16:07.815Z,1.90
2022-09-20T15:21:00.721Z,1.90
2022-09-20T15:25:54.256Z,2.00
2022-09-20T15:30:50.008Z,2.40
2022-09-20T15:35:43.009Z,2.73
2022-09-20T15:40:35.541Z,2.50
2022-09-20T15:45:29.156Z,2.60
2022-09-20T15:50:23.435Z,2.73
2022-09-20T15:55:16.011Z,2.80
2022-09-20T16:00:09.223Z,2.50
2022-09-20T16:05:02.091Z,2.60
2022-09-20T16:09:56.612Z,5.23
2022-09-20T16:14:49.131Z,3.47
2022-09-20T16:19:42.551Z,3.10
2022-09-20T16:24:35.869Z,2.80
2022-09-20T16:29:30.229Z,3.10
2022-09-20T16:34:23.924Z,3.13
2022-09-20T16:39:17.223Z,2.90
2022-09-20T16:44:10.199Z,2.70
2022-09-20T16:49:04.185Z,3.57
2022-09-20T16:53:56.781Z,4.50
2022-09-20T16:58:49.466Z,3.20
2022-09-20T17:03:41.963Z,3.30
2022-09-20T17:08:38.649Z,3.07
2022-09-20T17:13:32.795Z,2.87
2022-09-20T17:18:25.303Z,3.23
2022-09-20T17:23:17.823Z,3.27
2022-09-20T17:28:11.686Z,3.60
2022-09-20T17:33:05.076Z,3.87
2022-09-20T17:37:57.580Z,3.60
2022-09-20T17:42:50.983Z,3.80
2022-09-20T17:47:44.819Z,4.57
2022-09-20T17:52:37.399Z,4.50
2022-09-20T17:57:30.235Z,4.90
2022-09-20T18:02:22.771Z,4.70
2022-09-20T18:07:16.593Z,4.03
2022-09-20T18:12:10.346Z,4.00
2022-09-20T18:17:05.347Z,5.40
2022-09-20T18:21:57.848Z,4.93
2022-09-20T18:26:51.905Z,5.80
2022-09-20T18:31:46.785Z,6.23
2022-09-20T18:36:40.406Z,6.10
2022-09-20T18:41:33.968Z,7.13
2022-09-20T18:46:29.261Z,7.43
2022-09-20T18:51:24.204Z,7.50
2022-09-20T18:56:24.318Z,6.90
2022-09-20T19:01:23.406Z,7.63
2022-09-20T19:06:18.824Z,7.47
2022-09-20T19:11:13.426Z,6.83
2022-09-20T19:16:18.611Z,6.63
2022-09-20T19:21:15.651Z,5.40
2022-09-20T19:26:18.978Z,7.67
2022-09-20T19:31:13.969Z,7.60
2022-09-20T19:36:11.276Z,5.80
2022-09-20T19:41:09.272Z,5.83
2022-09-20T19:46:06.729Z,6.37
2022-09-20T19:51:03.307Z,8.40
2022-09-20T19:55:58.161Z,8.73
2022-09-20T20:00:51.056Z,9.10
2022-09-20T20:05:48.191Z,8.17
2022-09-20T20:10:49.737Z,6.90
2022-09-20T20:15:45.291Z,5.27
2022-09-20T20:20:39.864Z,5.60
2022-09-20T20:25:37.546Z,5.50
2022-09-20T20:30:30.064Z,6.03
2022-09-20T20:35:23.103Z,6.70
2022-09-20T20:40:15.950Z,5.60
2022-09-20T20:45:10.387Z,5.10
2022-09-20T20:50:02.871Z,6.03
2022-09-20T20:54:55.344Z,6.20
2022-09-20T20:59:47.813Z,6.70
2022-09-20T21:04:42.368Z,5.87
2022-09-20T21:09:34.873Z,4.90
2022-09-20T21:14:27.369Z,4.60
2022-09-20T21:19:20.084Z,5.23
2022-09-20T21:24:17.105Z,4.93
2022-09-20T21:29:11.592Z,5.00
2022-09-20T21:34:05.480Z,6.00
2022-09-20T21:38:58.246Z,5.80
2022-09-20T21:43:54.860Z,5.03
2022-09-20T21:48:48.215Z,4.73
2022-09-20T21:53:40.885Z,5.87
2022-09-20T21:58:34.010Z,5.80
2022-09-20T22:03:30.342Z,5.30
2022-09-20T22:08:22.821Z,5.03
2022-09-20T22:13:15.284Z,4.80
2022-09-20T22:18:07.792Z,4.40
2022-09-20T22:23:01.637Z,5.10
2022-09-20T22:27:54.142Z,4.70
2022-09-20T22:32:46.670Z,5.20
2022-09-20T22:37:39.202Z,6.10
2022-09-20T22:42:33.042Z,6.80
2022-09-20T22:47:25.519Z,7.03
2022-09-20T22:52:18.289Z,8.27
2022-09-20T22:57:10.757Z,8.10
2022-09-20T23:02:04.736Z,5.67
2022-09-20T23:06:57.244Z,4.67
2022-09-20T23:11:49.991Z,5.50
2022-09-20T23:16:42.881Z,5.33
2022-09-20T23:21:37.695Z,4.43
2022-09-20T23:26:31.091Z,5.10
2022-09-20T23:31:23.967Z,5.33
2022-09-20T23:36:17.081Z,5.20
2022-09-20T23:41:11.777Z,5.07
2022-09-20T23:46:05.043Z,5.83
2022-09-20T23:50:57.653Z,5.80
2022-09-20T23:55:50.252Z,6.30
